sensor_id;sensor_type;location;lat;lon;timestamp;P1;durP1;ratioP1;P2;durP2;ratioP2
75935;SDS011;64614;32.062;34.834;2024-03-23T00:55:40;5.07;;;2.40;;
75935;SDS011;64614;32.062;34.834;2024-03-23T00:58:08;4.40;;;2.25;;
75935;SDS011;64614;32.062;34.834;2024-03-23T01:00:34;5.25;;;2.30;;
75935;SDS011;64614;32.062;34.834;2024-03-23T01:03:00;5.13;;;2.13;;
75935;SDS011;64614;32.062;34.834;2024-03-23T01:05:26;4.70;;;2.25;;
75935;SDS011;64614;32.062;34.834;2024-03-23T01:07:51;4.40;;;2.20;;
75935;SDS011;64614;32.062;34.834;2024-03-23T01:10:17;5.00;;;2.30;;
75935;SDS011;64614;32.062;34.834;2024-03-23T01:12:42;6.03;;;2.40;;
75935;SDS011;64614;32.062;34.834;2024-03-23T01:15:08;4.95;;;2.30;;
75935;SDS011;64614;32.062;34.834;2024-03-23T01:17:34;5.60;;;2.25;;
75935;SDS011;64614;32.062;34.834;2024-03-23T01:20:00;5.25;;;2.25;;
75935;SDS011;64614;32.062;34.834;2024-03-23T01:22:25;5.60;;;2.25;;
75935;SDS011;64614;32.062;34.834;2024-03-23T01:24:51;4.68;;;2.22;;
75935;SDS011;64614;32.062;34.834;2024-03-23T01:27:17;5.55;;;2.38;;
75935;SDS011;64614;32.062;34.834;2024-03-23T01:29:43;5.35;;;2.40;;
75935;SDS011;64614;32.062;34.834;2024-03-23T01:32:08;4.82;;;2.38;;
75935;SDS011;64614;32.062;34.834;2024-03-23T01:34:34;5.18;;;2.22;;
75935;SDS011;64614;32.062;34.834;2024-03-23T01:37:00;5.68;;;2.50;;
75935;SDS011;64614;32.062;34.834;2024-03-23T01:39:26;4.35;;;2.40;;
75935;SDS011;64614;32.062;34.834;2024-03-23T01:41:51;4.85;;;2.38;;
75935;SDS011;64614;32.062;34.834;2024-03-23T01:44:17;5.25;;;2.38;;
75935;SDS011;64614;32.062;34.834;2024-03-23T01:46:42;4.47;;;2.20;;
75935;SDS011;64614;32.062;34.834;2024-03-23T01:49:10;5.10;;;2.50;;
75935;SDS011;64614;32.062;34.834;2024-03-23T01:51:37;4.18;;;2.05;;
75935;SDS011;64614;32.062;34.834;2024-03-23T01:54:03;5.57;;;2.30;;
75935;SDS011;64614;32.062;34.834;2024-03-23T01:56:32;4.63;;;2.30;;
75935;SDS011;64614;32.062;34.834;2024-03-23T01:59:02;5.65;;;2.20;;
75935;SDS011;64614;32.062;34.834;2024-03-23T02:01:28;4.63;;;2.15;;
75935;SDS011;64614;32.062;34.834;2024-03-23T02:03:55;4.03;;;2.10;;
75935;SDS011;64614;32.062;34.834;2024-03-23T02:06:23;4.05;;;2.08;;
75935;SDS011;64614;32.062;34.834;2024-03-23T02:08:49;4.07;;;2.28;;
75935;SDS011;64614;32.062;34.834;2024-03-23T02:11:15;6.07;;;2.35;;
75935;SDS011;64614;32.062;34.834;2024-03-23T02:13:41;5.10;;;2.13;;
75935;SDS011;64614;32.062;34.834;2024-03-23T02:16:06;4.68;;;2.30;;
75935;SDS011;64614;32.062;34.834;2024-03-23T02:18:32;5.03;;;2.50;;
75935;SDS011;64614;32.062;34.834;2024-03-23T02:20:58;5.10;;;2.33;;
75935;SDS011;64614;32.062;34.834;2024-03-23T02:23:24;6.35;;;2.25;;
75935;SDS011;64614;32.062;34.834;2024-03-23T02:25:50;4.68;;;2.20;;
75935;SDS011;64614;32.062;34.834;2024-03-23T02:28:16;4.72;;;2.35;;
75935;SDS011;64614;32.062;34.834;2024-03-23T02:30:42;4.32;;;2.10;;
75935;SDS011;64614;32.062;34.834;2024-03-23T02:33:08;4.70;;;2.08;;
75935;SDS011;64614;32.062;34.834;2024-03-23T02:35:33;6.13;;;2.55;;
75935;SDS011;64614;32.062;34.834;2024-03-23T02:37:59;6.13;;;2.45;;
75935;SDS011;64614;32.062;34.834;2024-03-23T02:40:25;6.28;;;2.40;;
75935;SDS011;64614;32.062;34.834;2024-03-23T02:42:51;4.93;;;2.35;;
75935;SDS011;64614;32.062;34.834;2024-03-23T02:45:17;5.53;;;2.22;;
75935;SDS011;64614;32.062;34.834;2024-03-23T02:47:43;5.40;;;2.47;;
75935;SDS011;64614;32.062;34.834;2024-03-23T02:50:09;4.93;;;2.28;;
75935;SDS011;64614;32.062;34.834;2024-03-23T02:52:35;4.35;;;2.20;;
75935;SDS011;64614;32.062;34.834;2024-03-23T02:55:02;5.57;;;2.25;;
75935;SDS011;64614;32.062;34.834;2024-03-23T02:57:28;5.72;;;2.42;;
75935;SDS011;64614;32.062;34.834;2024-03-23T02:59:54;4.32;;;2.33;;
75935;SDS011;64614;32.062;34.834;2024-03-23T03:02:20;4.30;;;2.00;;
75935;SDS011;64614;32.062;34.834;2024-03-23T03:04:46;5.70;;;2.55;;
75935;SDS011;64614;32.062;34.834;2024-03-23T03:07:12;5.40;;;2.25;;
75935;SDS011;64614;32.062;34.834;2024-03-23T03:09:38;6.43;;;2.40;;
75935;SDS011;64614;32.062;34.834;2024-03-23T03:12:05;4.70;;;2.13;;
75935;SDS011;64614;32.062;34.834;2024-03-23T03:14:31;5.00;;;2.10;;
75935;SDS011;64614;32.062;34.834;2024-03-23T03:16:56;5.35;;;2.30;;
75935;SDS011;64614;32.062;34.834;2024-03-23T03:19:22;4.80;;;2.30;;
75935;SDS011;64614;32.062;34.834;2024-03-23T03:21:48;4.63;;;2.35;;
75935;SDS011;64614;32.062;34.834;2024-03-23T03:24:14;6.22;;;2.63;;
75935;SDS011;64614;32.062;34.834;2024-03-23T03:26:40;4.68;;;2.17;;
75935;SDS011;64614;32.062;34.834;2024-03-23T03:29:05;3.97;;;2.22;;
75935;SDS011;64614;32.062;34.834;2024-03-23T03:31:31;6.05;;;2.08;;
75935;SDS011;64614;32.062;34.834;2024-03-23T03:33:56;5.55;;;2.40;;
75935;SDS011;64614;32.062;34.834;2024-03-23T03:36:22;4.40;;;1.98;;
75935;SDS011;64614;32.062;34.834;2024-03-23T03:38:48;5.50;;;2.55;;
75935;SDS011;64614;32.062;34.834;2024-03-23T03:41:13;4.47;;;2.30;;
75935;SDS011;64614;32.062;34.834;2024-03-23T03:43:40;4.82;;;2.20;;
75935;SDS011;64614;32.062;34.834;2024-03-23T03:46:06;6.60;;;2.33;;
75935;SDS011;64614;32.062;34.834;2024-03-23T03:48:33;3.67;;;2.10;;
75935;SDS011;64614;32.062;34.834;2024-03-23T03:50:59;5.65;;;2.47;;
75935;SDS011;64614;32.062;34.834;2024-03-23T03:53:26;4.43;;;2.28;;
75935;SDS011;64614;32.062;34.834;2024-03-23T03:55:52;4.65;;;2.30;;
75935;SDS011;64614;32.062;34.834;2024-03-23T03:58:17;5.28;;;2.30;;
75935;SDS011;64614;32.062;34.834;2024-03-23T04:00:43;6.82;;;2.38;;
75935;SDS011;64614;32.062;34.834;2024-03-23T04:03:09;6.15;;;2.38;;
75935;SDS011;64614;32.062;34.834;2024-03-23T04:05:34;5.38;;;2.30;;
75935;SDS011;64614;32.062;34.834;2024-03-23T04:08:00;6.13;;;2.55;;
75935;SDS011;64614;32.062;34.834;2024-03-23T04:10:26;5.30;;;2.25;;
75935;SDS011;64614;32.062;34.834;2024-03-23T04:12:52;4.13;;;2.08;;
75935;SDS011;64614;32.062;34.834;2024-03-23T04:15:17;4.18;;;2.20;;
75935;SDS011;64614;32.062;34.834;2024-03-23T04:17:43;4.40;;;2.20;;
75935;SDS011;64614;32.062;34.834;2024-03-23T04:20:09;4.70;;;2.03;;
75935;SDS011;64614;32.062;34.834;2024-03-23T04:22:39;6.03;;;2.30;;
75935;SDS011;64614;32.062;34.834;2024-03-23T04:27:38;4.47;;;2.05;;
75935;SDS011;64614;32.062;34.834;2024-03-23T04:32:35;3.65;;;1.88;;
75935;SDS011;64614;32.062;34.834;2024-03-23T04:35:01;5.28;;;2.35;;
75935;SDS011;64614;32.062;34.834;2024-03-23T04:37:28;7.55;;;2.45;;
75935;SDS011;64614;32.062;34.834;2024-03-23T04:39:54;4.38;;;2.22;;
75935;SDS011;64614;32.062;34.834;2024-03-23T04:42:19;5.72;;;2.42;;
75935;SDS011;64614;32.062;34.834;2024-03-23T04:44:45;4.03;;;2.13;;
75935;SDS011;64614;32.062;34.834;2024-03-23T04:47:10;5.93;;;2.50;;
75935;SDS011;64614;32.062;34.834;2024-03-23T04:49:36;5.18;;;2.28;;
75935;SDS011;64614;32.062;34.834;2024-03-23T04:52:05;5.82;;;2.53;;
75935;SDS011;64614;32.062;34.834;2024-03-23T04:54:31;4.40;;;2.25;;
75935;SDS011;64614;32.062;34.834;2024-03-23T04:56:59;4.63;;;2.25;;
75935;SDS011;64614;32.062;34.834;2024-03-23T04:59:25;4.15;;;2.17;;
75935;SDS011;64614;32.062;34.834;2024-03-23T05:01:51;5.43;;;2.20;;
75935;SDS011;64614;32.062;34.834;2024-03-23T05:04:16;4.45;;;2.20;;
75935;SDS011;64614;32.062;34.834;2024-03-23T05:06:42;5.20;;;1.80;;
75935;SDS011;64614;32.062;34.834;2024-03-23T05:09:08;4.53;;;1.92;;
75935;SDS011;64614;32.062;34.834;2024-03-23T05:11:39;4.78;;;2.47;;
75935;SDS011;64614;32.062;34.834;2024-03-23T05:14:07;5.65;;;2.28;;
75935;SDS011;64614;32.062;34.834;2024-03-23T05:16:33;6.13;;;2.38;;
75935;SDS011;64614;32.062;34.834;2024-03-23T05:18:59;5.15;;;2.30;;
75935;SDS011;64614;32.062;34.834;2024-03-23T05:21:26;5.25;;;2.17;;
75935;SDS011;64614;32.062;34.834;2024-03-23T05:23:53;4.32;;;2.13;;
75935;SDS011;64614;32.062;34.834;2024-03-23T05:26:19;4.05;;;2.08;;
75935;SDS011;64614;32.062;34.834;2024-03-23T05:28:48;4.43;;;2.25;;
75935;SDS011;64614;32.062;34.834;2024-03-23T05:31:22;3.80;;;2.00;;
75935;SDS011;64614;32.062;34.834;2024-03-23T05:33:51;4.75;;;2.08;;
75935;SDS011;64614;32.062;34.834;2024-03-23T05:36:17;4.72;;;2.03;;
75935;SDS011;64614;32.062;34.834;2024-03-23T05:38:43;3.88;;;1.92;;
75935;SDS011;64614;32.062;34.834;2024-03-23T05:41:09;4.97;;;2.08;;
75935;SDS011;64614;32.062;34.834;2024-03-23T05:43:35;3.88;;;1.85;;
75935;SDS011;64614;32.062;34.834;2024-03-23T05:46:00;4.78;;;2.30;;
75935;SDS011;64614;32.062;34.834;2024-03-23T05:48:27;4.28;;;2.15;;
75935;SDS011;64614;32.062;34.834;2024-03-23T05:50:53;5.15;;;2.10;;
75935;SDS011;64614;32.062;34.834;2024-03-23T05:53:19;3.88;;;1.90;;
75935;SDS011;64614;32.062;34.834;2024-03-23T05:55:48;5.03;;;2.10;;
75935;SDS011;64614;32.062;34.834;2024-03-23T05:58:15;3.95;;;2.00;;
75935;SDS011;64614;32.062;34.834;2024-03-23T06:00:42;4.00;;;2.05;;
75935;SDS011;64614;32.062;34.834;2024-03-23T06:03:08;6.72;;;2.08;;
75935;SDS011;64614;32.062;34.834;2024-03-23T06:05:36;4.10;;;2.00;;
75935;SDS011;64614;32.062;34.834;2024-03-23T06:08:02;5.80;;;2.00;;
75935;SDS011;64614;32.062;34.834;2024-03-23T06:10:28;5.15;;;2.33;;
75935;SDS011;64614;32.062;34.834;2024-03-23T06:12:54;4.97;;;2.10;;
75935;SDS011;64614;32.062;34.834;2024-03-23T06:15:20;4.47;;;2.08;;
75935;SDS011;64614;32.062;34.834;2024-03-23T06:17:47;4.10;;;1.95;;
75935;SDS011;64614;32.062;34.834;2024-03-23T06:20:14;4.93;;;1.85;;
75935;SDS011;64614;32.062;34.834;2024-03-23T06:22:39;5.05;;;2.20;;
75935;SDS011;64614;32.062;34.834;2024-03-23T06:25:05;2.80;;;1.90;;
75935;SDS011;64614;32.062;34.834;2024-03-23T06:27:32;3.83;;;1.95;;
75935;SDS011;64614;32.062;34.834;2024-03-23T06:29:58;3.88;;;1.95;;
75935;SDS011;64614;32.062;34.834;2024-03-23T06:32:25;3.60;;;1.90;;
75935;SDS011;64614;32.062;34.834;2024-03-23T06:34:51;3.72;;;1.98;;
75935;SDS011;64614;32.062;34.834;2024-03-23T06:37:17;4.13;;;1.92;;
75935;SDS011;64614;32.062;34.834;2024-03-23T06:39:42;5.22;;;2.30;;
75935;SDS011;64614;32.062;34.834;2024-03-23T06:42:10;6.95;;;2.53;;
75935;SDS011;64614;32.062;34.834;2024-03-23T06:44:36;6.63;;;2.53;;
75935;SDS011;64614;32.062;34.834;2024-03-23T06:47:02;5.28;;;2.60;;
75935;SDS011;64614;32.062;34.834;2024-03-23T06:49:27;4.78;;;2.50;;
75935;SDS011;64614;32.062;34.834;2024-03-23T06:51:53;5.97;;;2.70;;
75935;SDS011;64614;32.062;34.834;2024-03-23T06:54:19;5.35;;;2.50;;
75935;SDS011;64614;32.062;34.834;2024-03-23T06:56:45;4.78;;;2.35;;
75935;SDS011;64614;32.062;34.834;2024-03-23T06:59:10;5.07;;;2.42;;
75935;SDS011;64614;32.062;34.834;2024-03-23T07:01:36;6.63;;;2.78;;
75935;SDS011;64614;32.062;34.834;2024-03-23T07:04:02;7.00;;;2.67;;
75935;SDS011;64614;32.062;34.834;2024-03-23T07:06:31;6.78;;;2.50;;
75935;SDS011;64614;32.062;34.834;2024-03-23T07:08:59;5.45;;;2.70;;
75935;SDS011;64614;32.062;34.834;2024-03-23T07:11:25;9.88;;;2.88;;
75935;SDS011;64614;32.062;34.834;2024-03-23T07:13:54;6.70;;;2.70;;
75935;SDS011;64614;32.062;34.834;2024-03-23T07:16:26;5.13;;;2.42;;
75935;SDS011;64614;32.062;34.834;2024-03-23T07:19:12;5.80;;;2.45;;
75935;SDS011;64614;32.062;34.834;2024-03-23T07:21:48;5.57;;;2.38;;
75935;SDS011;64614;32.062;34.834;2024-03-23T07:24:14;4.90;;;2.30;;
75935;SDS011;64614;32.062;34.834;2024-03-23T07:26:40;5.90;;;2.53;;
75935;SDS011;64614;32.062;34.834;2024-03-23T07:29:06;5.50;;;2.50;;
75935;SDS011;64614;32.062;34.834;2024-03-23T07:31:32;5.70;;;2.50;;
75935;SDS011;64614;32.062;34.834;2024-03-23T07:33:58;4.85;;;2.30;;
75935;SDS011;64614;32.062;34.834;2024-03-23T07:36:23;6.60;;;2.45;;
75935;SDS011;64614;32.062;34.834;2024-03-23T07:38:50;4.95;;;2.30;;
75935;SDS011;64614;32.062;34.834;2024-03-23T07:41:17;5.00;;;2.30;;
75935;SDS011;64614;32.062;34.834;2024-03-23T07:43:46;4.93;;;2.50;;
75935;SDS011;64614;32.062;34.834;2024-03-23T07:46:13;5.07;;;2.42;;
75935;SDS011;64614;32.062;34.834;2024-03-23T07:48:39;6.25;;;2.42;;
75935;SDS011;64614;32.062;34.834;2024-03-23T07:51:11;6.55;;;2.67;;
75935;SDS011;64614;32.062;34.834;2024-03-23T07:53:47;6.82;;;2.75;;
75935;SDS011;64614;32.062;34.834;2024-03-23T07:56:15;6.00;;;2.40;;
75935;SDS011;64614;32.062;34.834;2024-03-23T07:58:44;5.95;;;2.50;;
75935;SDS011;64614;32.062;34.834;2024-03-23T08:03:42;5.85;;;2.40;;
75935;SDS011;64614;32.062;34.834;2024-03-23T08:06:18;6.45;;;2.45;;
75935;SDS011;64614;32.062;34.834;2024-03-23T08:08:50;8.48;;;2.35;;
75935;SDS011;64614;32.062;34.834;2024-03-23T08:11:28;5.78;;;2.40;;
75935;SDS011;64614;32.062;34.834;2024-03-23T08:13:54;5.65;;;2.47;;
75935;SDS011;64614;32.062;34.834;2024-03-23T08:16:20;4.75;;;2.33;;
75935;SDS011;64614;32.062;34.834;2024-03-23T08:18:46;5.68;;;2.40;;
75935;SDS011;64614;32.062;34.834;2024-03-23T08:21:12;6.55;;;2.72;;
75935;SDS011;64614;32.062;34.834;2024-03-23T08:23:38;6.95;;;2.60;;
75935;SDS011;64614;32.062;34.834;2024-03-23T08:26:05;5.15;;;2.22;;
75935;SDS011;64614;32.062;34.834;2024-03-23T08:28:31;5.18;;;2.53;;
75935;SDS011;64614;32.062;34.834;2024-03-23T08:31:00;4.88;;;2.40;;
75935;SDS011;64614;32.062;34.834;2024-03-23T08:33:27;7.05;;;2.58;;
75935;SDS011;64614;32.062;34.834;2024-03-23T08:35:56;4.95;;;2.40;;
75935;SDS011;64614;32.062;34.834;2024-03-23T08:38:29;4.93;;;2.30;;
75935;SDS011;64614;32.062;34.834;2024-03-23T08:40:58;4.40;;;2.22;;
75935;SDS011;64614;32.062;34.834;2024-03-23T08:43:24;4.20;;;2.22;;
75935;SDS011;64614;32.062;34.834;2024-03-23T08:45:50;5.22;;;2.40;;
75935;SDS011;64614;32.062;34.834;2024-03-23T08:48:15;6.43;;;2.40;;
75935;SDS011;64614;32.062;34.834;2024-03-23T08:50:41;5.40;;;2.40;;
75935;SDS011;64614;32.062;34.834;2024-03-23T08:53:07;4.28;;;2.22;;
75935;SDS011;64614;32.062;34.834;2024-03-23T08:55:35;6.35;;;2.40;;
75935;SDS011;64614;32.062;34.834;2024-03-23T08:58:00;4.80;;;2.40;;
75935;SDS011;64614;32.062;34.834;2024-03-23T09:00:26;6.03;;;2.30;;
75935;SDS011;64614;32.062;34.834;2024-03-23T09:02:52;6.07;;;2.55;;
75935;SDS011;64614;32.062;34.834;2024-03-23T09:05:18;5.63;;;2.40;;
75935;SDS011;64614;32.062;34.834;2024-03-23T09:07:44;5.28;;;2.45;;
75935;SDS011;64614;32.062;34.834;2024-03-23T09:10:10;5.15;;;2.50;;
75935;SDS011;64614;32.062;34.834;2024-03-23T09:12:35;4.63;;;2.38;;
75935;SDS011;64614;32.062;34.834;2024-03-23T09:15:02;5.18;;;2.17;;
75935;SDS011;64614;32.062;34.834;2024-03-23T09:17:28;5.43;;;2.70;;
75935;SDS011;64614;32.062;34.834;2024-03-23T09:19:53;5.03;;;2.10;;
75935;SDS011;64614;32.062;34.834;2024-03-23T09:22:19;5.90;;;2.63;;
75935;SDS011;64614;32.062;34.834;2024-03-23T09:24:45;5.78;;;2.58;;
75935;SDS011;64614;32.062;34.834;2024-03-23T09:27:10;4.50;;;2.40;;
75935;SDS011;64614;32.062;34.834;2024-03-23T09:29:36;5.53;;;2.40;;
75935;SDS011;64614;32.062;34.834;2024-03-23T09:32:01;5.22;;;2.42;;
75935;SDS011;64614;32.062;34.834;2024-03-23T09:34:27;5.32;;;2.45;;
75935;SDS011;64614;32.062;34.834;2024-03-23T09:36:53;5.35;;;2.42;;
75935;SDS011;64614;32.062;34.834;2024-03-23T09:39:18;5.32;;;2.58;;
75935;SDS011;64614;32.062;34.834;2024-03-23T09:41:44;4.72;;;2.40;;
75935;SDS011;64614;32.062;34.834;2024-03-23T09:44:10;6.00;;;2.50;;
75935;SDS011;64614;32.062;34.834;2024-03-23T09:46:36;6.55;;;2.70;;
75935;SDS011;64614;32.062;34.834;2024-03-23T09:49:04;5.30;;;2.38;;
75935;SDS011;64614;32.062;34.834;2024-03-23T09:51:35;5.82;;;2.47;;
75935;SDS011;64614;32.062;34.834;2024-03-23T09:54:01;5.00;;;2.10;;
75935;SDS011;64614;32.062;34.834;2024-03-23T09:56:27;6.45;;;2.35;;
75935;SDS011;64614;32.062;34.834;2024-03-23T09:58:59;6.28;;;2.42;;
75935;SDS011;64614;32.062;34.834;2024-03-23T10:01:26;4.78;;;2.40;;
75935;SDS011;64614;32.062;34.834;2024-03-23T10:03:51;5.72;;;2.20;;
75935;SDS011;64614;32.062;34.834;2024-03-23T10:06:17;6.25;;;2.30;;
75935;SDS011;64614;32.062;34.834;2024-03-23T10:08:47;6.30;;;2.60;;
75935;SDS011;64614;32.062;34.834;2024-03-23T10:11:13;5.93;;;2.83;;
75935;SDS011;64614;32.062;34.834;2024-03-23T10:13:41;6.13;;;2.72;;
75935;SDS011;64614;32.062;34.834;2024-03-23T10:16:08;7.45;;;2.70;;
75935;SDS011;64614;32.062;34.834;2024-03-23T10:18:38;5.57;;;2.40;;
75935;SDS011;64614;32.062;34.834;2024-03-23T10:21:08;5.57;;;2.40;;
75935;SDS011;64614;32.062;34.834;2024-03-23T10:23:36;7.80;;;2.60;;
75935;SDS011;64614;32.062;34.834;2024-03-23T10:26:12;5.30;;;2.33;;
75935;SDS011;64614;32.062;34.834;2024-03-23T10:28:53;3.85;;;2.22;;
75935;SDS011;64614;32.062;34.834;2024-03-23T10:31:20;4.47;;;2.38;;
75935;SDS011;64614;32.062;34.834;2024-03-23T10:33:46;5.47;;;2.42;;
75935;SDS011;64614;32.062;34.834;2024-03-23T10:36:13;7.18;;;2.67;;
75935;SDS011;64614;32.062;34.834;2024-03-23T10:38:43;6.28;;;2.50;;
75935;SDS011;64614;32.062;34.834;2024-03-23T10:41:10;6.13;;;2.65;;
75935;SDS011;64614;32.062;34.834;2024-03-23T10:43:36;5.55;;;2.30;;
75935;SDS011;64614;32.062;34.834;2024-03-23T10:46:03;7.95;;;2.60;;
75935;SDS011;64614;32.062;34.834;2024-03-23T10:48:29;4.55;;;2.40;;
75935;SDS011;64614;32.062;34.834;2024-03-23T10:50:56;7.75;;;2.50;;
75935;SDS011;64614;32.062;34.834;2024-03-23T10:53:21;6.32;;;2.67;;
75935;SDS011;64614;32.062;34.834;2024-03-23T10:55:50;4.95;;;2.20;;
75935;SDS011;64614;32.062;34.834;2024-03-23T10:58:18;4.28;;;2.13;;
75935;SDS011;64614;32.062;34.834;2024-03-23T11:00:47;5.18;;;2.20;;
75935;SDS011;64614;32.062;34.834;2024-03-23T11:06:06;4.50;;;2.03;;
75935;SDS011;64614;32.062;34.834;2024-03-23T11:08:39;4.45;;;2.10;;
75935;SDS011;64614;32.062;34.834;2024-03-23T11:11:18;4.72;;;2.10;;
75935;SDS011;64614;32.062;34.834;2024-03-23T11:13:47;4.40;;;2.00;;
75935;SDS011;64614;32.062;34.834;2024-03-23T11:18:40;4.50;;;2.03;;
75935;SDS011;64614;32.062;34.834;2024-03-23T11:21:07;5.28;;;1.90;;
75935;SDS011;64614;32.062;34.834;2024-03-23T11:23:33;3.90;;;2.03;;
75935;SDS011;64614;32.062;34.834;2024-03-23T11:25:59;4.50;;;2.00;;
75935;SDS011;64614;32.062;34.834;2024-03-23T11:28:25;5.50;;;2.20;;
75935;SDS011;64614;32.062;34.834;2024-03-23T11:30:50;4.63;;;2.10;;
75935;SDS011;64614;32.062;34.834;2024-03-23T11:33:16;4.68;;;2.00;;
75935;SDS011;64614;32.062;34.834;2024-03-23T11:35:42;4.03;;;2.03;;
75935;SDS011;64614;32.062;34.834;2024-03-23T11:38:14;4.90;;;2.20;;
75935;SDS011;64614;32.062;34.834;2024-03-23T11:40:48;5.18;;;2.03;;
75935;SDS011;64614;32.062;34.834;2024-03-23T11:43:15;5.18;;;2.05;;
75935;SDS011;64614;32.062;34.834;2024-03-23T11:45:46;5.38;;;2.15;;
75935;SDS011;64614;32.062;34.834;2024-03-23T11:48:20;3.72;;;1.88;;
75935;SDS011;64614;32.062;34.834;2024-03-23T11:50:48;4.18;;;2.03;;
75935;SDS011;64614;32.062;34.834;2024-03-23T11:56:06;4.93;;;1.98;;
75935;SDS011;64614;32.062;34.834;2024-03-23T11:58:31;4.22;;;2.08;;
75935;SDS011;64614;32.062;34.834;2024-03-23T12:01:04;4.85;;;1.95;;
75935;SDS011;64614;32.062;34.834;2024-03-23T12:03:30;4.43;;;2.05;;
75935;SDS011;64614;32.062;34.834;2024-03-23T12:06:02;5.05;;;2.10;;
75935;SDS011;64614;32.062;34.834;2024-03-23T12:08:29;5.15;;;2.25;;
75935;SDS011;64614;32.062;34.834;2024-03-23T12:11:09;5.53;;;2.03;;
75935;SDS011;64614;32.062;34.834;2024-03-23T12:13:36;4.55;;;1.80;;
75935;SDS011;64614;32.062;34.834;2024-03-23T12:18:42;4.07;;;2.10;;
75935;SDS011;64614;32.062;34.834;2024-03-23T12:21:10;3.92;;;1.92;;
75935;SDS011;64614;32.062;34.834;2024-03-23T12:23:38;4.13;;;1.98;;
75935;SDS011;64614;32.062;34.834;2024-03-23T12:26:05;3.20;;;1.80;;
75935;SDS011;64614;32.062;34.834;2024-03-23T12:28:31;4.43;;;1.88;;
75935;SDS011;64614;32.062;34.834;2024-03-23T12:30:57;5.53;;;1.90;;
75935;SDS011;64614;32.062;34.834;2024-03-23T12:33:23;5.68;;;2.10;;
75935;SDS011;64614;32.062;34.834;2024-03-23T12:35:52;4.15;;;2.03;;
75935;SDS011;64614;32.062;34.834;2024-03-23T12:38:19;3.50;;;1.80;;
75935;SDS011;64614;32.062;34.834;2024-03-23T12:40:48;4.05;;;1.90;;
75935;SDS011;64614;32.062;34.834;2024-03-23T12:43:15;3.75;;;1.80;;
75935;SDS011;64614;32.062;34.834;2024-03-23T12:45:41;4.03;;;1.85;;
75935;SDS011;64614;32.062;34.834;2024-03-23T12:48:11;3.78;;;1.90;;
75935;SDS011;64614;32.062;34.834;2024-03-23T12:50:36;4.40;;;1.90;;
75935;SDS011;64614;32.062;34.834;2024-03-23T12:53:03;2.90;;;1.73;;
75935;SDS011;64614;32.062;34.834;2024-03-23T12:55:28;5.15;;;1.90;;
75935;SDS011;64614;32.062;34.834;2024-03-23T12:57:54;3.45;;;1.90;;
75935;SDS011;64614;32.062;34.834;2024-03-23T13:00:20;3.00;;;1.55;;
75935;SDS011;64614;32.062;34.834;2024-03-23T13:02:45;3.03;;;1.75;;
75935;SDS011;64614;32.062;34.834;2024-03-23T13:05:11;4.10;;;2.10;;
75935;SDS011;64614;32.062;34.834;2024-03-23T13:07:36;3.30;;;1.45;;
75935;SDS011;64614;32.062;34.834;2024-03-23T13:10:03;2.95;;;1.65;;
75935;SDS011;64614;32.062;34.834;2024-03-23T13:12:30;2.95;;;1.70;;
75935;SDS011;64614;32.062;34.834;2024-03-23T13:14:56;2.65;;;1.65;;
75935;SDS011;64614;32.062;34.834;2024-03-23T13:17:22;2.72;;;1.50;;
75935;SDS011;64614;32.062;34.834;2024-03-23T13:19:47;3.22;;;1.50;;
75935;SDS011;64614;32.062;34.834;2024-03-23T13:22:13;3.95;;;1.90;;
75935;SDS011;64614;32.062;34.834;2024-03-23T13:24:38;2.53;;;1.33;;
75935;SDS011;64614;32.062;34.834;2024-03-23T13:27:04;1.85;;;1.40;;
75935;SDS011;64614;32.062;34.834;2024-03-23T13:29:34;2.95;;;1.52;;
75935;SDS011;64614;32.062;34.834;2024-03-23T13:32:00;3.70;;;1.92;;
75935;SDS011;64614;32.062;34.834;2024-03-23T13:34:26;3.05;;;1.60;;
75935;SDS011;64614;32.062;34.834;2024-03-23T13:36:53;2.50;;;1.70;;
75935;SDS011;64614;32.062;34.834;2024-03-23T13:39:19;3.35;;;1.50;;
75935;SDS011;64614;32.062;34.834;2024-03-23T13:41:45;4.10;;;1.70;;
75935;SDS011;64614;32.062;34.834;2024-03-23T13:44:13;2.47;;;1.50;;
75935;SDS011;64614;32.062;34.834;2024-03-23T13:46:45;3.13;;;1.50;;
75935;SDS011;64614;32.062;34.834;2024-03-23T13:49:24;3.60;;;1.60;;
75935;SDS011;64614;32.062;34.834;2024-03-23T13:51:59;3.45;;;1.63;;
75935;SDS011;64614;32.062;34.834;2024-03-23T13:54:25;2.92;;;1.40;;
75935;SDS011;64614;32.062;34.834;2024-03-23T13:56:52;2.40;;;1.40;;
75935;SDS011;64614;32.062;34.834;2024-03-23T13:59:19;2.60;;;1.60;;
75935;SDS011;64614;32.062;34.834;2024-03-23T14:01:46;3.38;;;1.55;;
75935;SDS011;64614;32.062;34.834;2024-03-23T14:04:12;2.90;;;1.65;;
75935;SDS011;64614;32.062;34.834;2024-03-23T14:06:39;2.53;;;1.55;;
75935;SDS011;64614;32.062;34.834;2024-03-23T14:09:05;3.10;;;1.60;;
75935;SDS011;64614;32.062;34.834;2024-03-23T14:11:34;2.85;;;1.55;;
75935;SDS011;64614;32.062;34.834;2024-03-23T14:14:02;5.47;;;1.80;;
75935;SDS011;64614;32.062;34.834;2024-03-23T14:16:31;3.25;;;1.70;;
75935;SDS011;64614;32.062;34.834;2024-03-23T14:18:57;3.53;;;1.70;;
75935;SDS011;64614;32.062;34.834;2024-03-23T14:21:23;3.88;;;1.70;;
75935;SDS011;64614;32.062;34.834;2024-03-23T14:23:49;4.00;;;1.77;;
75935;SDS011;64614;32.062;34.834;2024-03-23T14:26:14;4.50;;;1.83;;
75935;SDS011;64614;32.062;34.834;2024-03-23T14:28:40;4.43;;;1.80;;
75935;SDS011;64614;32.062;34.834;2024-03-23T14:31:06;4.10;;;1.80;;
75935;SDS011;64614;32.062;34.834;2024-03-23T14:33:38;5.45;;;2.00;;
75935;SDS011;64614;32.062;34.834;2024-03-23T14:36:06;37.00;;;3.55;;
75935;SDS011;64614;32.062;34.834;2024-03-23T14:38:49;11.18;;;2.33;;
75935;SDS011;64614;32.062;34.834;2024-03-23T14:41:43;7.22;;;1.95;;
75935;SDS011;64614;32.062;34.834;2024-03-23T14:44:10;6.90;;;2.10;;
75935;SDS011;64614;32.062;34.834;2024-03-23T14:46:38;6.07;;;2.05;;
75935;SDS011;64614;32.062;34.834;2024-03-23T14:49:03;4.68;;;1.88;;
75935;SDS011;64614;32.062;34.834;2024-03-23T14:51:29;5.85;;;2.03;;
75935;SDS011;64614;32.062;34.834;2024-03-23T14:53:54;4.03;;;1.83;;
75935;SDS011;64614;32.062;34.834;2024-03-23T14:56:20;4.68;;;1.75;;
75935;SDS011;64614;32.062;34.834;2024-03-23T14:58:46;5.47;;;1.85;;
75935;SDS011;64614;32.062;34.834;2024-03-23T15:01:12;5.38;;;1.77;;
75935;SDS011;64614;32.062;34.834;2024-03-23T15:03:38;3.28;;;1.77;;
75935;SDS011;64614;32.062;34.834;2024-03-23T15:06:04;4.97;;;1.70;;
75935;SDS011;64614;32.062;34.834;2024-03-23T15:08:31;4.40;;;1.60;;
75935;SDS011;64614;32.062;34.834;2024-03-23T15:11:00;4.20;;;1.63;;
75935;SDS011;64614;32.062;34.834;2024-03-23T15:13:31;3.25;;;1.70;;
75935;SDS011;64614;32.062;34.834;2024-03-23T15:15:57;3.10;;;1.65;;
75935;SDS011;64614;32.062;34.834;2024-03-23T15:18:24;7.93;;;2.00;;
75935;SDS011;64614;32.062;34.834;2024-03-23T15:20:58;7.05;;;2.15;;
75935;SDS011;64614;32.062;34.834;2024-03-23T15:23:28;7.10;;;2.20;;
75935;SDS011;64614;32.062;34.834;2024-03-23T15:26:00;7.43;;;2.20;;
75935;SDS011;64614;32.062;34.834;2024-03-23T15:28:27;9.88;;;2.42;;
75935;SDS011;64614;32.062;34.834;2024-03-23T15:31:06;11.02;;;2.75;;
75935;SDS011;64614;32.062;34.834;2024-03-23T15:33:35;8.57;;;2.30;;
75935;SDS011;64614;32.062;34.834;2024-03-23T15:36:01;9.60;;;2.70;;
75935;SDS011;64614;32.062;34.834;2024-03-23T15:38:28;6.32;;;1.88;;
75935;SDS011;64614;32.062;34.834;2024-03-23T15:40:57;13.60;;;2.63;;
75935;SDS011;64614;32.062;34.834;2024-03-23T15:43:22;9.90;;;2.10;;
75935;SDS011;64614;32.062;34.834;2024-03-23T15:45:54;12.50;;;3.10;;